createdAt,value
2022-08-05T00:00:52.111Z,42.17
2022-08-05T00:01:54.002Z,42.08
2022-08-05T00:02:55.853Z,42.61
2022-08-05T00:03:57.719Z,42.11
2022-08-05T00:04:59.445Z,42.28
2022-08-05T00:06:05.410Z,43.09
2022-08-05T00:07:58.848Z,41.97
2022-08-05T00:08:45.305Z,41.91
2022-08-05T00:09:49.259Z,42.17
2022-08-05T00:10:50.986Z,42.32
2022-08-05T00:11:55.744Z,42.10
2022-08-05T00:12:57.939Z,42.48
2022-08-05T00:13:59.910Z,42.37
2022-08-05T00:15:56.309Z,42.27
2022-08-05T00:16:36.582Z,42.56
2022-08-05T00:17:45.212Z,42.82
2022-08-05T00:18:50.129Z,43.20
2022-08-05T00:20:02.166Z,43.31
2022-08-05T00:21:06.904Z,42.65
2022-08-05T00:22:11.235Z,42.99
2022-08-05T00:23:13.509Z,42.88
2022-08-05T00:24:16.115Z,42.63
2022-08-05T00:25:21.098Z,42.76
2022-08-05T00:26:22.914Z,42.84
2022-08-05T00:27:35.737Z,43.27
2022-08-05T00:28:38.262Z,43.01
2022-08-05T00:29:41.629Z,43.12
2022-08-05T00:30:44.172Z,43.61
2022-08-05T00:32:10.101Z,44.52
2022-08-05T00:33:15.451Z,42.56
2022-08-05T00:34:56.798Z,42.69
2022-08-05T00:36:16.140Z,42.75
2022-08-05T00:37:14.394Z,42.56
2022-08-05T00:38:16.235Z,42.49
2022-08-05T00:39:36.964Z,42.44
2022-08-05T00:40:53.406Z,42.29
2022-08-05T00:41:55.850Z,42.58
2022-08-05T00:42:59.573Z,42.17
2022-08-05T00:44:01.648Z,42.48
2022-08-05T00:45:06.647Z,42.35
2022-08-05T00:46:10.594Z,42.56
2022-08-05T00:47:12.328Z,42.23
2022-08-05T00:48:27.527Z,42.41
2022-08-05T00:49:51.158Z,42.53
2022-08-05T00:50:53.703Z,42.42
2022-08-05T00:51:55.385Z,41.91
2022-08-05T00:52:57.159Z,42.10
2022-08-05T00:54:02.234Z,42.11
2022-08-05T00:55:05.344Z,42.30
2022-08-05T00:56:07.942Z,42.00
2022-08-05T00:57:09.881Z,42.13
2022-08-05T00:58:13.341Z,42.22
2022-08-05T00:59:15.033Z,42.19
2022-08-05T01:00:16.968Z,42.08
2022-08-05T01:01:42.239Z,42.78
2022-08-05T01:02:40.641Z,43.60
2022-08-05T01:03:43.180Z,44.51
2022-08-05T01:04:51.786Z,44.03
2022-08-05T01:05:54.723Z,44.71
2022-08-05T01:06:56.993Z,43.67
2022-08-05T01:08:40.391Z,44.09
2022-08-05T01:09:20.514Z,43.76
2022-08-05T01:10:28.841Z,43.95
2022-08-05T01:11:37.217Z,44.31
2022-08-05T01:13:03.259Z,43.81
2022-08-05T01:14:35.613Z,44.08
2022-08-05T01:15:47.854Z,45.13
2022-08-05T01:16:55.398Z,45.00
2022-08-05T01:18:03.942Z,43.75
2022-08-05T01:19:36.671Z,43.69
2022-08-05T01:21:06.521Z,44.01
2022-08-05T01:22:15.445Z,43.66
2022-08-05T01:23:38.519Z,43.26
2022-08-05T01:24:49.055Z,43.82
2022-08-05T01:26:17.106Z,43.25
2022-08-05T01:27:54.871Z,42.96
2022-08-05T01:29:04.644Z,43.67
2022-08-05T01:30:17.847Z,43.02
2022-08-05T01:31:30.219Z,43.71
2022-08-05T01:32:33.966Z,44.46
2022-08-05T01:33:53.506Z,44.63
2022-08-05T01:35:00.553Z,44.41
2022-08-05T01:36:06.834Z,44.17
2022-08-05T01:37:51.928Z,44.98
2022-08-05T01:39:00.988Z,44.74
2022-08-05T01:40:06.057Z,45.48
2022-08-05T01:41:09.319Z,45.88
2022-08-05T01:42:15.319Z,45.13
2022-08-05T01:43:22.064Z,45.61
2022-08-05T01:44:34.289Z,46.05
2022-08-05T01:45:42.895Z,45.43
2022-08-05T01:46:46.418Z,45.82
2022-08-05T01:47:49.944Z,45.72
2022-08-05T01:48:59.036Z,45.67
2022-08-05T01:50:03.218Z,45.77
2022-08-05T01:51:12.190Z,45.97
2022-08-05T01:52:17.798Z,46.28
2022-08-05T01:53:57.624Z,46.52
2022-08-05T01:54:48.724Z,46.45
2022-08-05T01:55:58.934Z,47.11
2022-08-05T01:58:11.869Z,47.92
2022-08-05T01:58:44.724Z,47.85
2022-08-05T01:59:49.846Z,47.98
2022-08-05T02:00:52.799Z,48.06
2022-08-05T02:01:58.148Z,47.94
2022-08-05T02:03:06.898Z,48.33
2022-08-05T02:04:28.902Z,47.98
2022-08-05T02:05:35.948Z,47.92
2022-08-05T02:06:39.557Z,47.82
2022-08-05T02:07:56.232Z,47.70
2022-08-05T02:09:02.474Z,47.82
2022-08-05T02:10:05.565Z,48.95
2022-08-05T02:11:12.690Z,48.79
2022-08-05T02:12:25.755Z,48.64
2022-08-05T02:13:53.128Z,47.68
2022-08-05T02:15:12.383Z,47.83
2022-08-05T02:16:22.121Z,46.76
2022-08-05T02:18:33.038Z,46.39
2022-08-05T02:19:18.276Z,45.58
2022-08-05T02:20:25.274Z,47.10
2022-08-05T02:21:43.021Z,46.45
2022-08-05T02:22:48.504Z,46.67
2022-08-05T02:23:55.519Z,46.29
2022-08-05T02:25:22.349Z,45.59
2022-08-05T02:26:41.043Z,46.45
2022-08-05T02:27:59.792Z,46.00
2022-08-05T02:29:02.650Z,45.72
2022-08-05T02:30:09.045Z,46.31
2022-08-05T02:31:23.870Z,46.26
2022-08-05T02:32:29.381Z,46.90
2022-08-05T02:33:38.821Z,46.59
2022-08-05T02:34:42.759Z,46.49
2022-08-05T02:35:55.854Z,46.31
2022-08-05T02:37:05.133Z,46.38
2022-08-05T02:38:09.376Z,46.85
2022-08-05T02:39:13.052Z,47.71
2022-08-05T02:40:17.202Z,46.92
2022-08-05T02:41:20.714Z,47.43
2022-08-05T02:42:30.700Z,46.88
2022-08-05T02:44:02.816Z,46.47
2022-08-05T02:45:02.757Z,46.36
2022-08-05T02:46:06.279Z,46.85
2022-08-05T02:47:10.284Z,47.20
2022-08-05T02:48:13.354Z,47.33
2022-08-05T02:49:19.447Z,47.89
2022-08-05T02:50:24.930Z,47.95
2022-08-05T02:51:28.567Z,48.62
2022-08-05T02:52:51.086Z,49.23
2022-08-05T02:53:54.858Z,48.28
2022-08-05T02:54:57.858Z,47.71
2022-08-05T02:56:02.363Z,47.35
2022-08-05T02:57:10.365Z,47.64
2022-08-05T02:58:31.404Z,48.47
2022-08-05T02:59:47.757Z,49.01
2022-08-05T03:00:55.842Z,49.30
2022-08-05T03:02:00.885Z,49.55
2022-08-05T03:03:10.385Z,49.65
2022-08-05T03:04:15.788Z,49.44
2022-08-05T03:05:21.769Z,49.29
2022-08-05T03:06:53.645Z,49.78
2022-08-05T03:08:08.578Z,50.02
2022-08-05T03:09:17.856Z,49.88
2022-08-05T03:10:37.182Z,50.04
2022-08-05T03:11:57.244Z,50.72
2022-08-05T03:14:03.438Z,49.20
2022-08-05T03:15:09.309Z,49.17
2022-08-05T03:16:11.145Z,50.00
2022-08-05T03:17:17.532Z,50.08
2022-08-05T03:18:24.744Z,49.49
2022-08-05T03:19:34.199Z,49.43
2022-08-05T03:20:38.087Z,49.53
2022-08-05T03:21:50.570Z,49.97
2022-08-05T03:22:55.249Z,50.35
2022-08-05T03:24:00.023Z,49.93
2022-08-05T03:25:18.809Z,50.05
2022-08-05T03:26:30.510Z,49.36
2022-08-05T03:27:39.333Z,49.88
2022-08-05T03:28:56.480Z,50.02
2022-08-05T03:30:07.812Z,50.33
2022-08-05T03:31:11.043Z,49.96
2022-08-05T03:32:32.894Z,50.46
2022-08-05T03:33:51.163Z,50.08
2022-08-05T03:34:54.774Z,50.03
2022-08-05T03:35:58.950Z,49.47
2022-08-05T03:37:01.681Z,50.01
2022-08-05T03:38:03.826Z,50.23
2022-08-05T03:39:08.491Z,50.56
2022-08-05T03:40:31.360Z,50.37
2022-08-05T03:41:38.621Z,49.93
2022-08-05T03:42:52.585Z,49.91
2022-08-05T03:44:09.023Z,51.09
2022-08-05T03:45:21.815Z,50.40
2022-08-05T03:46:26.800Z,50.15
2022-08-05T03:47:35.602Z,49.56
2022-08-05T03:48:43.154Z,49.21
2022-08-05T03:49:51.607Z,48.97
2022-08-05T03:52:49.112Z,49.21
2022-08-05T03:54:59.373Z,48.94
2022-08-05T03:56:01.037Z,49.01
2022-08-05T03:56:10.776Z,49.16
2022-08-05T03:57:21.779Z,49.62
2022-08-05T03:58:34.839Z,49.44
2022-08-05T03:59:47.697Z,49.44
2022-08-05T04:01:00.705Z,48.79
2022-08-05T04:02:03.374Z,47.92
2022-08-05T04:03:08.264Z,47.54
2022-08-05T04:04:21.332Z,47.50
2022-08-05T04:05:23.997Z,47.30
2022-08-05T04:06:26.635Z,47.46
2022-08-05T04:07:29.193Z,47.40
2022-08-05T04:08:36.816Z,46.62
2022-08-05T04:09:38.913Z,46.04
2022-08-05T04:10:57.069Z,45.53
2022-08-05T04:11:59.993Z,45.17
2022-08-05T04:13:04.252Z,45.95
2022-08-05T04:14:07.375Z,44.83
2022-08-05T04:15:10.955Z,45.28
2022-08-05T04:16:24.111Z,44.88
2022-08-05T04:17:36.402Z,44.83
2022-08-05T04:18:54.203Z,44.09
2022-08-05T04:19:58.741Z,43.50
2022-08-05T04:21:00.608Z,43.79
2022-08-05T04:22:08.965Z,43.84
2022-08-05T04:23:16.022Z,43.57
2022-08-05T04:24:19.396Z,44.46
2022-08-05T04:25:56.619Z,44.10
2022-08-05T04:26:46.960Z,43.81
2022-08-05T04:27:58.945Z,43.20
2022-08-05T04:29:07.227Z,42.88
2022-08-05T04:30:10.805Z,42.76
2022-08-05T04:31:12.810Z,42.48
2022-08-05T04:32:14.587Z,41.95
2022-08-05T04:34:17.929Z,42.12
2022-08-05T04:34:43.642Z,42.69
2022-08-05T04:36:15.691Z,41.84
2022-08-05T04:37:07.319Z,40.72
2022-08-05T04:38:09.892Z,41.15
2022-08-05T04:39:20.896Z,40.59
2022-08-05T04:40:23.620Z,40.52
2022-08-05T04:41:36.593Z,39.67
2022-08-05T04:42:39.070Z,39.18
2022-08-05T04:43:48.239Z,38.97
2022-08-05T04:44:54.676Z,38.43
2022-08-05T04:45:56.353Z,39.66
2022-08-05T04:46:59.623Z,38.16
2022-08-05T04:48:16.438Z,38.21
2022-08-05T04:50:01.977Z,38.16
2022-08-05T04:51:01.948Z,37.14
2022-08-05T04:52:11.647Z,37.85
2022-08-05T04:53:15.607Z,37.74
2022-08-05T04:54:19.815Z,37.99
2022-08-05T04:55:49.829Z,37.07
2022-08-05T04:56:43.667Z,36.39
2022-08-05T04:57:47.605Z,36.90
2022-08-05T04:58:50.413Z,37.32
2022-08-05T04:59:52.694Z,36.98
2022-08-05T05:00:54.484Z,36.13
2022-08-05T05:02:35.356Z,35.54
2022-08-05T05:03:20.520Z,35.53
2022-08-05T05:04:22.331Z,34.84
2022-08-05T05:05:28.167Z,34.38
2022-08-05T05:06:35.830Z,33.74
2022-08-05T05:07:45.737Z,34.39
2022-08-05T05:08:54.721Z,34.71
2022-08-05T05:09:57.380Z,34.33
2022-08-05T05:10:59.104Z,34.03
2022-08-05T05:12:02.934Z,34.87
2022-08-05T05:13:04.999Z,33.89
2022-08-05T05:14:06.818Z,33.43
2022-08-05T05:15:11.079Z,34.23
2022-08-05T05:16:12.856Z,33.23
2022-08-05T05:17:22.874Z,32.75
2022-08-05T05:18:31.559Z,33.23
2022-08-05T05:19:37.029Z,32.09
2022-08-05T05:20:46.767Z,32.71
2022-08-05T05:21:51.483Z,31.78
2022-08-05T05:22:58.770Z,31.93
2022-08-05T05:24:04.278Z,31.09
2022-08-05T05:25:16.897Z,31.20
2022-08-05T05:26:19.159Z,31.56
2022-08-05T05:27:21.140Z,30.30
2022-08-05T05:28:23.042Z,30.33
2022-08-05T05:30:03.410Z,30.23
2022-08-05T05:30:49.784Z,29.85
2022-08-05T05:31:51.721Z,30.29
2022-08-05T05:32:54.706Z,29.19
2022-08-05T05:33:59.437Z,29.60
2022-08-05T05:35:01.908Z,29.10
2022-08-05T05:36:05.278Z,28.81
2022-08-05T05:37:06.992Z,28.83
2022-08-05T05:38:09.126Z,28.80
2022-08-05T05:39:14.841Z,28.27
2022-08-05T05:40:23.342Z,28.16
2022-08-05T05:41:40.117Z,28.12
2022-08-05T05:42:42.659Z,28.61
2022-08-05T05:43:56.994Z,28.45
2022-08-05T05:45:02.994Z,27.78
2022-08-05T05:46:05.141Z,27.28
2022-08-05T05:47:13.342Z,27.04
2022-08-05T05:48:27.424Z,27.13
2022-08-05T05:49:29.650Z,27.00
2022-08-05T05:50:31.527Z,26.98
2022-08-05T05:51:49.654Z,26.16
2022-08-05T05:52:52.936Z,26.26
2022-08-05T05:53:58.776Z,26.75
2022-08-05T05:55:07.338Z,26.49
2022-08-05T05:56:09.706Z,27.25
2022-08-05T05:57:13.733Z,26.72
2022-08-05T05:58:31.587Z,27.10
2022-08-05T05:59:33.918Z,26.18
2022-08-05T06:00:42.210Z,26.72
2022-08-05T06:01:57.144Z,27.01
2022-08-05T06:03:02.595Z,27.05
2022-08-05T06:04:04.767Z,26.49
2022-08-05T06:05:16.932Z,26.71
2022-08-05T06:06:18.945Z,25.65
2022-08-05T06:07:41.736Z,26.28
2022-08-05T06:08:44.534Z,25.75
2022-08-05T06:10:01.421Z,25.13
2022-08-05T06:11:07.643Z,26.18
2022-08-05T06:12:09.831Z,25.75
2022-08-05T06:13:13.874Z,25.54
2022-08-05T06:14:15.664Z,26.30
2022-08-05T06:15:23.996Z,25.65
2022-08-05T06:16:28.978Z,26.28
2022-08-05T06:17:33.171Z,26.47
2022-08-05T06:18:54.804Z,25.85
2022-08-05T06:19:59.607Z,26.25
2022-08-05T06:21:01.618Z,25.79
2022-08-05T06:22:04.407Z,25.02
2022-08-05T06:23:08.368Z,24.88
2022-08-05T06:24:12.180Z,25.26
2022-08-05T06:25:25.094Z,24.52
2022-08-05T06:26:36.077Z,24.50
2022-08-05T06:28:10.966Z,24.99
2022-08-05T06:28:59.623Z,24.47
2022-08-05T06:30:16.959Z,25.26
2022-08-05T06:31:22.571Z,25.02
2022-08-05T06:32:32.439Z,25.19
2022-08-05T06:34:07.279Z,24.44
2022-08-05T06:34:59.217Z,24.75
2022-08-05T06:36:08.187Z,23.98
2022-08-05T06:37:12.367Z,24.44
2022-08-05T06:38:14.181Z,23.93
2022-08-05T06:39:17.837Z,23.74
2022-08-05T06:40:27.764Z,24.95
2022-08-05T06:41:34.798Z,23.76
2022-08-05T06:42:42.944Z,23.48
2022-08-05T06:43:58.798Z,24.00
2022-08-05T06:45:05.472Z,23.13
2022-08-05T06:46:10.634Z,22.95
2022-08-05T06:48:11.458Z,23.45
2022-08-05T06:48:53.053Z,23.44
2022-08-05T06:50:00.325Z,23.02
2022-08-05T06:51:09.338Z,21.84
2022-08-05T06:52:38.043Z,22.41
2022-08-05T06:53:33.625Z,22.76
2022-08-05T06:54:41.149Z,21.40
2022-08-05T06:55:42.931Z,21.65
2022-08-05T06:56:54.500Z,22.47
2022-08-05T06:58:19.801Z,22.69
2022-08-05T06:59:22.394Z,22.86
2022-08-05T07:00:25.499Z,21.96
2022-08-05T07:01:32.644Z,20.82
2022-08-05T07:02:42.637Z,21.27
2022-08-05T07:03:44.381Z,22.11
2022-08-05T07:04:46.143Z,21.94
2022-08-05T07:05:47.940Z,23.10
2022-08-05T07:06:51.423Z,20.60
2022-08-05T07:07:53.200Z,21.96
2022-08-05T07:08:55.425Z,21.54
2022-08-05T07:09:58.295Z,21.68
2022-08-05T07:11:00.508Z,22.75
2022-08-05T07:12:04.141Z,21.40
2022-08-05T07:13:57.146Z,21.97
2022-08-05T07:15:34.045Z,20.96
2022-08-05T07:18:01.905Z,21.08
2022-08-05T07:18:20.385Z,20.94
2022-08-05T07:20:10.624Z,20.45
2022-08-05T07:20:52.842Z,20.26
2022-08-05T07:22:00.442Z,21.31
2022-08-05T07:23:03.027Z,20.52
2022-08-05T07:24:11.309Z,20.82
2022-08-05T07:25:55.039Z,20.17
2022-08-05T07:26:35.037Z,21.14
2022-08-05T07:28:00.073Z,20.01
2022-08-05T07:28:59.785Z,20.60
2022-08-05T07:30:22.390Z,19.91
2022-08-05T07:31:41.014Z,19.96
2022-08-05T07:32:45.178Z,21.00
2022-08-05T07:33:55.116Z,20.45
2022-08-05T07:35:56.718Z,19.32
2022-08-05T07:36:23.532Z,19.83
2022-08-05T07:37:35.901Z,20.73
2022-08-05T07:38:43.255Z,19.73
2022-08-05T07:40:26.150Z,19.63
2022-08-05T07:42:09.118Z,20.86
2022-08-05T07:42:34.024Z,21.64
2022-08-05T07:43:38.109Z,19.03
2022-08-05T07:44:39.833Z,20.19
2022-08-05T07:45:57.180Z,20.47
2022-08-05T07:47:00.136Z,20.46
2022-08-05T07:48:02.205Z,20.43
2022-08-05T07:49:07.765Z,20.59
2022-08-05T07:50:09.921Z,19.73
2022-08-05T07:51:23.564Z,19.48
2022-08-05T07:52:38.862Z,19.40
2022-08-05T07:53:50.826Z,20.28
2022-08-05T07:54:53.296Z,20.55
2022-08-05T07:56:05.101Z,19.02
2022-08-05T07:57:13.958Z,19.96
2022-08-05T07:58:57.389Z,21.02
2022-08-05T07:59:48.886Z,20.09
2022-08-05T08:00:50.929Z,19.37
2022-08-05T08:01:57.696Z,20.17
2022-08-05T08:03:15.434Z,19.63
2022-08-05T08:04:17.632Z,19.59
2022-08-05T08:05:47.260Z,19.83
2022-08-05T08:06:51.605Z,18.48
2022-08-05T08:07:59.535Z,19.25
2022-08-05T08:09:02.291Z,19.91
2022-08-05T08:10:05.413Z,19.54
2022-08-05T08:11:08.920Z,19.29
2022-08-05T08:12:35.611Z,20.42
2022-08-05T08:13:43.013Z,19.18
2022-08-05T08:14:51.341Z,19.13
2022-08-05T08:16:49.917Z,20.50
2022-08-05T08:17:16.160Z,18.70
2022-08-05T08:18:20.966Z,19.39
2022-08-05T08:20:23.031Z,19.40
2022-08-05T08:21:03.180Z,18.22
2022-08-05T08:22:07.361Z,19.12
2022-08-05T08:24:03.357Z,17.70
2022-08-05T08:24:34.740Z,18.98
2022-08-05T08:26:00.895Z,18.22
2022-08-05T08:27:07.054Z,18.28
2022-08-05T08:28:18.201Z,17.83
2022-08-05T08:29:45.106Z,17.79
2022-08-05T08:30:47.890Z,18.09
2022-08-05T08:31:52.474Z,17.60
2022-08-05T08:32:54.232Z,16.58
2022-08-05T08:33:56.384Z,16.94
2022-08-05T08:34:58.838Z,17.53
2022-08-05T08:36:29.409Z,17.28
2022-08-05T08:37:28.056Z,17.55
2022-08-05T08:38:36.129Z,16.94
2022-08-05T08:39:49.507Z,17.59
2022-08-05T08:40:51.887Z,16.97
2022-08-05T08:41:59.730Z,17.31
2022-08-05T08:45:16.161Z,17.32
2022-08-05T08:45:18.936Z,17.37
2022-08-05T08:45:54.229Z,18.50
2022-08-05T08:46:57.023Z,19.25
2022-08-05T08:48:07.011Z,17.09
2022-08-05T08:50:22.385Z,15.71
2022-08-05T08:51:07.763Z,18.13
2022-08-05T08:52:14.381Z,16.07
2022-08-05T08:53:17.170Z,16.81
2022-08-05T08:54:19.210Z,16.46
2022-08-05T08:56:02.421Z,17.83
2022-08-05T08:56:47.681Z,17.20
2022-08-05T08:57:58.257Z,17.36
2022-08-05T08:59:01.350Z,16.10
2022-08-05T09:00:12.044Z,16.92
2022-08-05T09:01:19.237Z,16.17
2022-08-05T09:02:24.332Z,17.52
2022-08-05T09:03:44.929Z,16.39
2022-08-05T09:05:16.052Z,17.58
2022-08-05T09:06:12.084Z,16.69
2022-08-05T09:07:28.161Z,16.53
2022-08-05T09:08:30.461Z,17.62
2022-08-05T09:09:35.433Z,17.23
2022-08-05T09:10:41.490Z,17.22
2022-08-05T09:11:52.997Z,18.57
2022-08-05T09:13:04.967Z,20.12
2022-08-05T09:14:54.564Z,20.38
2022-08-05T09:15:29.211Z,20.76
2022-08-05T09:16:32.499Z,20.48
2022-08-05T09:17:41.075Z,20.33
2022-08-05T09:18:44.633Z,20.32
2022-08-05T09:20:01.614Z,20.67
2022-08-05T09:21:05.680Z,18.54
2022-08-05T09:22:22.000Z,19.13
2022-08-05T09:23:43.352Z,20.29
2022-08-05T09:24:58.156Z,19.33
2022-08-05T09:26:20.545Z,19.93
2022-08-05T09:28:03.847Z,18.94
2022-08-05T09:29:04.763Z,19.67
2022-08-05T09:30:07.135Z,18.69
2022-08-05T09:31:22.440Z,19.62
2022-08-05T09:32:43.038Z,21.27
2022-08-05T09:33:59.059Z,20.20
2022-08-05T09:35:09.158Z,19.43
2022-08-05T09:36:11.669Z,19.32
2022-08-05T09:38:17.389Z,18.76
2022-08-05T09:39:17.969Z,19.62
2022-08-05T09:40:36.405Z,17.56
2022-08-05T09:41:56.668Z,17.05
2022-08-05T09:43:01.374Z,17.20
2022-08-05T09:44:03.931Z,18.76
2022-08-05T09:46:04.707Z,15.94
2022-08-05T09:46:35.091Z,15.76
2022-08-05T09:47:55.079Z,17.38
2022-08-05T09:49:08.283Z,17.31
2022-08-05T09:50:37.386Z,15.92
2022-08-05T09:51:42.228Z,15.02
2022-08-05T09:52:45.241Z,15.84
2022-08-05T09:53:53.163Z,16.57
2022-08-05T09:55:06.250Z,16.98
2022-08-05T09:56:26.977Z,15.73
2022-08-05T09:57:39.564Z,15.80
2022-08-05T09:58:41.940Z,14.56
2022-08-05T09:59:48.006Z,15.08
2022-08-05T10:01:14.601Z,16.65
2022-08-05T10:02:38.637Z,15.74
2022-08-05T10:03:59.592Z,17.43
2022-08-05T10:05:16.381Z,17.23
2022-08-05T10:06:20.635Z,15.24
2022-08-05T10:08:10.709Z,15.17
2022-08-05T10:08:50.447Z,16.41
2022-08-05T10:10:02.704Z,15.31
2022-08-05T10:11:17.151Z,15.36
2022-08-05T10:12:31.684Z,15.61
2022-08-05T10:13:45.645Z,15.00
2022-08-05T10:14:49.801Z,14.31
2022-08-05T10:15:58.438Z,15.25
2022-08-05T10:17:37.667Z,14.78
2022-08-05T10:18:41.834Z,15.39
2022-08-05T10:20:04.096Z,16.96
2022-08-05T10:21:08.400Z,15.65
2022-08-05T10:22:15.809Z,14.64
2022-08-05T10:23:59.431Z,14.60
2022-08-05T10:24:59.367Z,14.25
2022-08-05T10:26:13.965Z,14.21
2022-08-05T10:27:16.857Z,13.89
2022-08-05T10:28:29.251Z,14.14
2022-08-05T10:30:07.105Z,13.62
2022-08-05T10:32:50.648Z,14.64
2022-08-05T10:32:52.974Z,13.89
2022-08-05T10:33:44.816Z,17.17
2022-08-05T10:34:49.386Z,15.25
2022-08-05T10:35:59.789Z,16.23
2022-08-05T10:37:02.597Z,17.14
2022-08-05T10:38:06.144Z,16.99
2022-08-05T10:39:24.603Z,15.70
2022-08-05T10:40:49.537Z,14.85
2022-08-05T10:42:11.435Z,15.45
2022-08-05T10:43:19.761Z,15.81
2022-08-05T10:44:25.733Z,15.94
2022-08-05T10:45:41.855Z,14.61
2022-08-05T10:46:54.224Z,14.71
2022-08-05T10:48:29.397Z,13.54
2022-08-05T10:49:18.576Z,15.49
2022-08-05T10:50:36.479Z,15.29
2022-08-05T10:51:53.088Z,15.55
2022-08-05T10:53:01.842Z,14.19
2022-08-05T10:54:05.847Z,15.45
2022-08-05T10:55:25.770Z,15.58
2022-08-05T10:56:31.327Z,15.17
2022-08-05T10:57:34.182Z,15.72
2022-08-05T10:58:49.628Z,17.61
2022-08-05T11:00:18.501Z,17.13
2022-08-05T11:01:54.103Z,15.47
2022-08-05T11:03:25.144Z,15.03
2022-08-05T11:04:28.199Z,15.41
2022-08-05T11:05:34.107Z,15.01
2022-08-05T11:06:57.616Z,14.42
2022-08-05T11:08:12.767Z,14.39
2022-08-05T11:09:39.152Z,14.42
2022-08-05T11:10:50.340Z,15.08
2022-08-05T11:12:03.332Z,13.78
2022-08-05T11:13:06.961Z,15.86
2022-08-05T11:14:10.977Z,15.92
2022-08-05T11:15:20.215Z,15.59
2022-08-05T11:16:47.853Z,14.67
2022-08-05T11:18:05.973Z,14.98
2022-08-05T11:20:10.583Z,14.48
2022-08-05T11:20:51.634Z,14.68
2022-08-05T11:21:55.531Z,15.09
2022-08-05T11:23:05.729Z,15.71
2022-08-05T11:24:30.403Z,14.56
2022-08-05T11:26:04.418Z,14.46
2022-08-05T11:27:45.850Z,15.81
2022-08-05T11:28:54.024Z,15.22
2022-08-05T11:30:01.762Z,15.22
2022-08-05T11:31:06.134Z,14.53
2022-08-05T11:32:29.147Z,14.35
2022-08-05T11:33:46.072Z,15.34
2022-08-05T11:34:51.326Z,15.61
2022-08-05T11:36:02.901Z,15.27
2022-08-05T11:38:30.972Z,14.69
2022-08-05T11:38:45.518Z,14.27
2022-08-05T11:40:00.237Z,14.74
2022-08-05T11:41:36.878Z,14.47
2022-08-05T11:42:37.951Z,14.55
2022-08-05T11:44:04.925Z,14.86
2022-08-05T11:45:23.417Z,15.10
2022-08-05T11:46:33.861Z,15.57
2022-08-05T11:47:48.854Z,17.19
2022-08-05T11:48:51.896Z,15.24
2022-08-05T11:49:58.697Z,15.23
2022-08-05T11:51:01.886Z,15.07
2022-08-05T11:52:11.601Z,15.96
2022-08-05T11:53:13.878Z,15.97
2022-08-05T11:54:33.675Z,14.86
2022-08-05T11:55:36.760Z,14.94
2022-08-05T11:56:50.625Z,14.61
2022-08-05T11:58:08.610Z,14.24
2022-08-05T11:59:24.227Z,15.92
2022-08-05T12:00:30.914Z,14.38
2022-08-05T12:01:32.659Z,14.39
2022-08-05T12:02:36.300Z,15.11
2022-08-05T12:03:55.622Z,16.15
2022-08-05T12:04:59.899Z,15.92
2022-08-05T12:06:05.922Z,15.00
2022-08-05T12:07:09.881Z,15.86
2022-08-05T12:08:18.009Z,14.77
2022-08-05T12:09:52.855Z,14.53
2022-08-05T12:10:49.685Z,15.17
2022-08-05T12:11:54.815Z,14.47
2022-08-05T12:13:04.074Z,14.08
2022-08-05T12:14:17.954Z,15.10
2022-08-05T12:15:35.874Z,16.22
2022-08-05T12:16:45.120Z,16.02
2022-08-05T12:18:04.244Z,15.55
2022-08-05T12:20:27.016Z,15.19
2022-08-05T12:20:38.594Z,15.28
2022-08-05T12:21:49.280Z,16.26
2022-08-05T12:22:51.891Z,16.24
2022-08-05T12:23:54.983Z,15.41
2022-08-05T12:24:57.866Z,15.28
2022-08-05T12:26:00.089Z,15.59
2022-08-05T12:27:09.816Z,15.89
2022-08-05T12:28:37.667Z,16.27
2022-08-05T12:29:39.563Z,18.11
2022-08-05T12:30:45.941Z,17.28
2022-08-05T12:31:53.032Z,16.47
2022-08-05T12:32:58.768Z,17.34
2022-08-05T12:34:14.510Z,17.37
2022-08-05T12:35:24.697Z,16.83
2022-08-05T12:36:39.496Z,17.44
2022-08-05T12:37:43.237Z,17.76
2022-08-05T12:38:45.399Z,16.97
2022-08-05T12:39:51.197Z,18.21
2022-08-05T12:40:54.160Z,18.74
2022-08-05T12:42:02.222Z,17.25
2022-08-05T12:43:07.323Z,19.41
2022-08-05T12:44:21.647Z,19.38
2022-08-05T12:45:42.619Z,17.45
2022-08-05T12:46:56.276Z,18.35
2022-08-05T12:48:01.338Z,18.24
2022-08-05T12:49:19.550Z,17.79
2022-08-05T12:50:27.257Z,19.09
2022-08-05T12:52:13.675Z,17.49
2022-08-05T12:53:08.214Z,17.35
2022-08-05T12:54:29.668Z,17.63
2022-08-05T12:55:32.651Z,17.16
2022-08-05T12:56:41.348Z,17.13
2022-08-05T12:58:50.933Z,16.95
2022-08-05T12:59:14.149Z,16.50
2022-08-05T13:02:01.665Z,17.18
2022-08-05T13:02:07.191Z,16.52
2022-08-05T13:03:12.091Z,16.11
2022-08-05T13:04:20.868Z,16.86
2022-08-05T13:05:24.934Z,17.61
2022-08-05T13:06:51.686Z,18.59
2022-08-05T13:08:00.475Z,16.59
2022-08-05T13:09:13.292Z,16.45
2022-08-05T13:10:19.810Z,17.29
2022-08-05T13:12:01.829Z,16.95
2022-08-05T13:12:58.133Z,16.22
2022-08-05T13:14:04.992Z,16.86
2022-08-05T13:15:16.456Z,18.06
2022-08-05T13:16:24.922Z,16.80
2022-08-05T13:17:32.055Z,16.01
2022-08-05T13:18:55.178Z,16.10
2022-08-05T13:20:12.134Z,17.27
2022-08-05T13:21:13.803Z,15.88
2022-08-05T13:22:28.546Z,16.51
2022-08-05T13:23:31.666Z,16.20
2022-08-05T13:24:50.965Z,17.50
2022-08-05T13:26:01.171Z,16.59
2022-08-05T13:27:03.148Z,17.66
2022-08-05T13:28:06.334Z,17.48
2022-08-05T13:29:08.418Z,17.97
2022-08-05T13:30:33.941Z,15.71
2022-08-05T13:32:04.112Z,16.34
2022-08-05T13:33:01.235Z,16.70
2022-08-05T13:34:21.873Z,17.07
2022-08-05T13:35:31.328Z,16.79
2022-08-05T13:36:47.486Z,17.63
2022-08-05T13:37:55.539Z,17.05
2022-08-05T13:38:57.675Z,17.88
2022-08-05T13:40:16.401Z,17.66
2022-08-05T13:41:21.571Z,18.40
2022-08-05T13:42:27.466Z,16.84
2022-08-05T13:43:45.165Z,19.53
2022-08-05T13:44:52.459Z,17.23
2022-08-05T13:45:54.443Z,17.69
2022-08-05T13:47:02.545Z,17.00
2022-08-05T13:48:56.644Z,17.41
2022-08-05T13:49:31.810Z,19.12
2022-08-05T13:50:37.225Z,17.38
2022-08-05T13:51:45.860Z,17.31
2022-08-05T13:52:50.040Z,17.52
2022-08-05T13:53:51.871Z,17.07
2022-08-05T13:55:01.148Z,17.32
2022-08-05T13:56:04.091Z,17.83
2022-08-05T13:57:21.030Z,18.34
2022-08-05T13:58:30.540Z,17.24
2022-08-05T13:59:32.797Z,17.82
2022-08-05T14:00:36.549Z,18.03
2022-08-05T14:01:44.390Z,17.49
2022-08-05T14:02:58.352Z,18.38
2022-08-05T14:04:21.952Z,18.19
2022-08-05T14:05:48.314Z,19.06
2022-08-05T14:06:58.744Z,18.27
2022-08-05T14:08:21.129Z,17.76
2022-08-05T14:09:29.668Z,17.66
2022-08-05T14:10:31.604Z,18.18
2022-08-05T14:11:33.363Z,18.63
2022-08-05T14:12:55.180Z,18.25
2022-08-05T14:13:57.093Z,18.54
2022-08-05T14:14:59.536Z,19.00
2022-08-05T14:16:04.490Z,17.48
2022-08-05T14:17:11.146Z,18.96
2022-08-05T14:18:23.473Z,18.38
2022-08-05T14:19:25.819Z,18.85
2022-08-05T14:20:30.649Z,17.33
2022-08-05T14:22:09.688Z,16.84
2022-08-05T14:22:54.632Z,17.22
2022-08-05T14:23:56.342Z,17.78
2022-08-05T14:24:58.151Z,17.91
2022-08-05T14:25:59.851Z,17.86
2022-08-05T14:27:17.626Z,18.03
2022-08-05T14:28:26.594Z,19.11
2022-08-05T14:29:31.375Z,18.55
2022-08-05T14:30:33.249Z,20.25
2022-08-05T14:32:03.704Z,17.51
2022-08-05T14:32:57.120Z,19.53
2022-08-05T14:34:01.334Z,18.31
2022-08-05T14:35:04.487Z,17.93
2022-08-05T14:36:12.514Z,18.28
2022-08-05T14:37:14.215Z,17.88
2022-08-05T14:38:33.299Z,18.17
2022-08-05T14:39:49.665Z,17.79
2022-08-05T14:40:58.266Z,17.96
2022-08-05T14:42:19.674Z,18.49
2022-08-05T14:43:22.200Z,18.59
2022-08-05T14:44:45.920Z,18.12
2022-08-05T14:45:47.727Z,17.84
2022-08-05T14:46:49.443Z,17.80
2022-08-05T14:48:02.890Z,19.09
2022-08-05T14:49:08.116Z,18.91
2022-08-05T14:50:18.407Z,17.98
2022-08-05T14:51:20.840Z,19.00
2022-08-05T14:52:50.066Z,19.58
2022-08-05T14:53:44.943Z,19.45
2022-08-05T14:54:52.741Z,19.54
2022-08-05T14:55:55.047Z,18.83
2022-08-05T14:56:58.210Z,18.46
2022-08-05T14:57:59.957Z,18.68
2022-08-05T14:59:02.318Z,19.37
2022-08-05T15:00:06.129Z,18.62
2022-08-05T15:01:16.213Z,18.72
2022-08-05T15:02:18.679Z,20.11
2022-08-05T15:03:22.959Z,18.98
2022-08-05T15:04:28.878Z,18.15
2022-08-05T15:06:08.295Z,18.55
2022-08-05T15:06:52.795Z,18.15
2022-08-05T15:08:06.396Z,18.46
2022-08-05T15:09:15.401Z,18.16
2022-08-05T15:10:17.172Z,18.06